<?xml version="1.0" encoding="UTF-8" standalone="no" ?>
<gpx xmlns="http://www.topografix.com/GPX/1/1" xmlns:xsi="http://www.w3.org/2001/XMLSchema-instance" xsi:schemaLocation="http://www.topografix.com/GPX/1/1 http://www.topografix.com/GPX/1/1/gpx.xsd" version="1.1" creator="VisuGPX - https://www.visugpx.com">
  <metadata>
    <name>Voucle Marvejols</name>
    <desc><![CDATA[Boucle au dessus de la colagne, au niveau du parcours santé.]]></desc>
  </metadata>
  <trk>
    <name><![CDATA[Piste0002]]></name>
    <trkseg>
      <trkpt lat="44.55451" lon="3.29543">
        <ele>617</ele>
        <time>2009-02-24T14:06:04.000Z</time>
      </trkpt>
      <trkpt lat="44.55457" lon="3.2953">
        <ele>654</ele>
        <time>2009-02-24T14:06:11.000Z</time>
      </trkpt>
      <trkpt lat="44.55455" lon="3.29545">
        <ele>657</ele>
        <time>2009-02-24T14:06:28.000Z</time>
      </trkpt>
      <trkpt lat="44.55465" lon="3.29545">
        <ele>659</ele>
        <time>2009-02-24T14:06:42.000Z</time>
      </trkpt>
      <trkpt lat="44.5547" lon="3.29542">
        <ele>654</ele>
        <time>2009-02-24T14:07:06.000Z</time>
      </trkpt>
      <trkpt lat="44.55471" lon="3.29532">
        <ele>667</ele>
        <time>2009-02-24T14:07:15.000Z</time>
      </trkpt>
      <trkpt lat="44.55473" lon="3.29515">
        <ele>691</ele>
        <time>2009-02-24T14:07:31.000Z</time>
      </trkpt>
      <trkpt lat="44.55479" lon="3.29514">
        <ele>701</ele>
        <time>2009-02-24T14:07:47.000Z</time>
      </trkpt>
      <trkpt lat="44.55484" lon="3.29523">
        <ele>690</ele>
        <time>2009-02-24T14:08:00.000Z</time>
      </trkpt>
      <trkpt lat="44.55485" lon="3.29533">
        <ele>685</ele>
        <time>2009-02-24T14:08:27.000Z</time>
      </trkpt>
      <trkpt lat="44.55489" lon="3.29539">
        <ele>677</ele>
        <time>2009-02-24T14:08:35.000Z</time>
      </trkpt>
      <trkpt lat="44.55493" lon="3.29552">
        <ele>667</ele>
        <time>2009-02-24T14:08:44.000Z</time>
      </trkpt>
      <trkpt lat="44.55496" lon="3.2956">
        <ele>660</ele>
        <time>2009-02-24T14:08:50.000Z</time>
      </trkpt>
      <trkpt lat="44.55501" lon="3.29566">
        <ele>655</ele>
        <time>2009-02-24T14:08:56.000Z</time>
      </trkpt>
      <trkpt lat="44.5551" lon="3.29573">
        <ele>649</ele>
        <time>2009-02-24T14:09:05.000Z</time>
      </trkpt>
      <trkpt lat="44.55518" lon="3.29577">
        <ele>650</ele>
        <time>2009-02-24T14:09:13.000Z</time>
      </trkpt>
      <trkpt lat="44.55538" lon="3.29588">
        <ele>640</ele>
        <time>2009-02-24T14:09:34.000Z</time>
      </trkpt>
      <trkpt lat="44.55543" lon="3.29593">
        <ele>635</ele>
        <time>2009-02-24T14:09:39.000Z</time>
      </trkpt>
      <trkpt lat="44.55554" lon="3.29609">
        <ele>630</ele>
        <time>2009-02-24T14:09:54.000Z</time>
      </trkpt>
      <trkpt lat="44.55559" lon="3.29614">
        <ele>634</ele>
        <time>2009-02-24T14:10:02.000Z</time>
      </trkpt>
      <trkpt lat="44.55599" lon="3.29621">
        <ele>659</ele>
        <time>2009-02-24T14:10:43.000Z</time>
      </trkpt>
      <trkpt lat="44.55609" lon="3.29627">
        <ele>657</ele>
        <time>2009-02-24T14:10:58.000Z</time>
      </trkpt>
      <trkpt lat="44.55615" lon="3.2963">
        <ele>658</ele>
        <time>2009-02-24T14:11:04.000Z</time>
      </trkpt>
      <trkpt lat="44.55622" lon="3.2963">
        <ele>662</ele>
        <time>2009-02-24T14:11:12.000Z</time>
      </trkpt>
      <trkpt lat="44.55643" lon="3.29634">
        <ele>663</ele>
        <time>2009-02-24T14:11:36.000Z</time>
      </trkpt>
      <trkpt lat="44.5566" lon="3.29641">
        <ele>674</ele>
        <time>2009-02-24T14:11:56.000Z</time>
      </trkpt>
      <trkpt lat="44.55669" lon="3.29641">
        <ele>684</ele>
        <time>2009-02-24T14:12:08.000Z</time>
      </trkpt>
      <trkpt lat="44.55683" lon="3.2965">
        <ele>677</ele>
        <time>2009-02-24T14:12:25.000Z</time>
      </trkpt>
      <trkpt lat="44.55688" lon="3.29655">
        <ele>673</ele>
        <time>2009-02-24T14:12:32.000Z</time>
      </trkpt>
      <trkpt lat="44.55716" lon="3.29667">
        <ele>665</ele>
        <time>2009-02-24T14:13:07.000Z</time>
      </trkpt>
      <trkpt lat="44.5574" lon="3.29661">
        <ele>702</ele>
        <time>2009-02-24T14:13:32.000Z</time>
      </trkpt>
      <trkpt lat="44.55748" lon="3.29666">
        <ele>695</ele>
        <time>2009-02-24T14:13:43.000Z</time>
      </trkpt>
      <trkpt lat="44.55755" lon="3.29669">
        <ele>687</ele>
        <time>2009-02-24T14:13:51.000Z</time>
      </trkpt>
      <trkpt lat="44.55799" lon="3.29678">
        <ele>679</ele>
        <time>2009-02-24T14:14:41.000Z</time>
      </trkpt>
      <trkpt lat="44.55801" lon="3.29678">
        <ele>679</ele>
        <time>2009-02-24T14:14:42.000Z</time>
      </trkpt>
      <trkpt lat="44.55826" lon="3.29684">
        <ele>682</ele>
        <time>2009-02-24T14:15:09.000Z</time>
      </trkpt>
      <trkpt lat="44.55866" lon="3.29689">
        <ele>686</ele>
        <time>2009-02-24T14:16:08.000Z</time>
      </trkpt>
      <trkpt lat="44.55901" lon="3.29706">
        <ele>693</ele>
        <time>2009-02-24T14:16:56.000Z</time>
      </trkpt>
      <trkpt lat="44.55946" lon="3.29719">
        <ele>690</ele>
        <time>2009-02-24T14:17:49.000Z</time>
      </trkpt>
      <trkpt lat="44.55947" lon="3.29719">
        <ele>689</ele>
        <time>2009-02-24T14:17:50.000Z</time>
      </trkpt>
      <trkpt lat="44.5595" lon="3.29721">
        <ele>689</ele>
        <time>2009-02-24T14:17:54.000Z</time>
      </trkpt>
      <trkpt lat="44.55954" lon="3.2973">
        <ele>666</ele>
        <time>2009-02-24T14:18:46.000Z</time>
      </trkpt>
      <trkpt lat="44.55952" lon="3.29729">
        <ele>670</ele>
        <time>2009-02-24T14:19:07.000Z</time>
      </trkpt>
      <trkpt lat="44.55951" lon="3.29716">
        <ele>706</ele>
        <time>2009-02-24T14:19:55.000Z</time>
      </trkpt>
      <trkpt lat="44.55955" lon="3.29726">
        <ele>672</ele>
        <time>2009-02-24T14:20:33.000Z</time>
      </trkpt>
      <trkpt lat="44.5595" lon="3.29719">
        <ele>682</ele>
        <time>2009-02-24T14:20:43.000Z</time>
      </trkpt>
      <trkpt lat="44.55944" lon="3.29719">
        <ele>691</ele>
        <time>2009-02-24T14:20:53.000Z</time>
      </trkpt>
      <trkpt lat="44.55936" lon="3.29722">
        <ele>704</ele>
        <time>2009-02-24T14:21:07.000Z</time>
      </trkpt>
      <trkpt lat="44.55924" lon="3.29721">
        <ele>701</ele>
        <time>2009-02-24T14:21:25.000Z</time>
      </trkpt>
      <trkpt lat="44.55912" lon="3.29721">
        <ele>704</ele>
        <time>2009-02-24T14:21:37.000Z</time>
      </trkpt>
      <trkpt lat="44.55897" lon="3.29723">
        <ele>705</ele>
        <time>2009-02-24T14:21:56.000Z</time>
      </trkpt>
      <trkpt lat="44.55886" lon="3.29724">
        <ele>700</ele>
        <time>2009-02-24T14:22:09.000Z</time>
      </trkpt>
      <trkpt lat="44.55841" lon="3.29726">
        <ele>710</ele>
        <time>2009-02-24T14:22:58.000Z</time>
      </trkpt>
      <trkpt lat="44.5584" lon="3.29727">
        <ele>710</ele>
        <time>2009-02-24T14:22:59.000Z</time>
      </trkpt>
      <trkpt lat="44.55833" lon="3.2973">
        <ele>706</ele>
        <time>2009-02-24T14:23:06.000Z</time>
      </trkpt>
      <trkpt lat="44.55834" lon="3.29733">
        <ele>692</ele>
        <time>2009-02-24T14:23:22.000Z</time>
      </trkpt>
      <trkpt lat="44.55824" lon="3.29731">
        <ele>710</ele>
        <time>2009-02-24T14:23:45.000Z</time>
      </trkpt>
      <trkpt lat="44.55817" lon="3.29732">
        <ele>711</ele>
        <time>2009-02-24T14:23:51.000Z</time>
      </trkpt>
      <trkpt lat="44.55792" lon="3.29734">
        <ele>707</ele>
        <time>2009-02-24T14:24:18.000Z</time>
      </trkpt>
      <trkpt lat="44.5578" lon="3.29737">
        <ele>703</ele>
        <time>2009-02-24T14:24:35.000Z</time>
      </trkpt>
      <trkpt lat="44.55774" lon="3.29738">
        <ele>700</ele>
        <time>2009-02-24T14:24:51.000Z</time>
      </trkpt>
      <trkpt lat="44.55764" lon="3.29737">
        <ele>712</ele>
        <time>2009-02-24T14:25:02.000Z</time>
      </trkpt>
      <trkpt lat="44.55747" lon="3.29737">
        <ele>725</ele>
        <time>2009-02-24T14:25:22.000Z</time>
      </trkpt>
      <trkpt lat="44.55742" lon="3.29739">
        <ele>727</ele>
        <time>2009-02-24T14:25:28.000Z</time>
      </trkpt>
      <trkpt lat="44.55736" lon="3.29741">
        <ele>724</ele>
        <time>2009-02-24T14:25:35.000Z</time>
      </trkpt>
      <trkpt lat="44.55721" lon="3.29742">
        <ele>721</ele>
        <time>2009-02-24T14:25:50.000Z</time>
      </trkpt>
      <trkpt lat="44.55716" lon="3.2974">
        <ele>722</ele>
        <time>2009-02-24T14:25:59.000Z</time>
      </trkpt>
      <trkpt lat="44.55702" lon="3.29744">
        <ele>719</ele>
        <time>2009-02-24T14:26:14.000Z</time>
      </trkpt>
      <trkpt lat="44.55696" lon="3.29744">
        <ele>716</ele>
        <time>2009-02-24T14:26:20.000Z</time>
      </trkpt>
      <trkpt lat="44.55688" lon="3.29744">
        <ele>719</ele>
        <time>2009-02-24T14:26:30.000Z</time>
      </trkpt>
      <trkpt lat="44.55682" lon="3.29738">
        <ele>729</ele>
        <time>2009-02-24T14:26:36.000Z</time>
      </trkpt>
      <trkpt lat="44.55677" lon="3.29737">
        <ele>736</ele>
        <time>2009-02-24T14:26:47.000Z</time>
      </trkpt>
      <trkpt lat="44.55672" lon="3.29739">
        <ele>731</ele>
        <time>2009-02-24T14:26:55.000Z</time>
      </trkpt>
      <trkpt lat="44.55663" lon="3.29739">
        <ele>730</ele>
        <time>2009-02-24T14:27:05.000Z</time>
      </trkpt>
      <trkpt lat="44.55657" lon="3.29739">
        <ele>730</ele>
        <time>2009-02-24T14:27:11.000Z</time>
      </trkpt>
      <trkpt lat="44.55651" lon="3.29739">
        <ele>730</ele>
        <time>2009-02-24T14:27:18.000Z</time>
      </trkpt>
      <trkpt lat="44.55645" lon="3.2974">
        <ele>732</ele>
        <time>2009-02-24T14:27:24.000Z</time>
      </trkpt>
      <trkpt lat="44.55638" lon="3.29739">
        <ele>731</ele>
        <time>2009-02-24T14:27:33.000Z</time>
      </trkpt>
      <trkpt lat="44.55618" lon="3.29733">
        <ele>734</ele>
        <time>2009-02-24T14:27:54.000Z</time>
      </trkpt>
      <trkpt lat="44.556" lon="3.29725">
        <ele>744</ele>
        <time>2009-02-24T14:28:13.000Z</time>
      </trkpt>
      <trkpt lat="44.55594" lon="3.29723">
        <ele>743</ele>
        <time>2009-02-24T14:28:21.000Z</time>
      </trkpt>
      <trkpt lat="44.55586" lon="3.2972">
        <ele>745</ele>
        <time>2009-02-24T14:28:30.000Z</time>
      </trkpt>
      <trkpt lat="44.5558" lon="3.29719">
        <ele>748</ele>
        <time>2009-02-24T14:28:36.000Z</time>
      </trkpt>
      <trkpt lat="44.55574" lon="3.29717">
        <ele>747</ele>
        <time>2009-02-24T14:28:44.000Z</time>
      </trkpt>
      <trkpt lat="44.55559" lon="3.29719">
        <ele>735</ele>
        <time>2009-02-24T14:28:59.000Z</time>
      </trkpt>
      <trkpt lat="44.55553" lon="3.29715">
        <ele>732</ele>
        <time>2009-02-24T14:29:16.000Z</time>
      </trkpt>
      <trkpt lat="44.55538" lon="3.29708">
        <ele>739</ele>
        <time>2009-02-24T14:29:36.000Z</time>
      </trkpt>
      <trkpt lat="44.5553" lon="3.29707">
        <ele>742</ele>
        <time>2009-02-24T14:29:54.000Z</time>
      </trkpt>
      <trkpt lat="44.55528" lon="3.29714">
        <ele>740</ele>
        <time>2009-02-24T14:30:18.000Z</time>
      </trkpt>
      <trkpt lat="44.55529" lon="3.29719">
        <ele>751</ele>
        <time>2009-02-24T14:30:35.000Z</time>
      </trkpt>
      <trkpt lat="44.55536" lon="3.2972">
        <ele>747</ele>
        <time>2009-02-24T14:30:44.000Z</time>
      </trkpt>
      <trkpt lat="44.55541" lon="3.29724">
        <ele>745</ele>
        <time>2009-02-24T14:30:50.000Z</time>
      </trkpt>
      <trkpt lat="44.55548" lon="3.29726">
        <ele>741</ele>
        <time>2009-02-24T14:30:56.000Z</time>
      </trkpt>
      <trkpt lat="44.55556" lon="3.29731">
        <ele>735</ele>
        <time>2009-02-24T14:31:05.000Z</time>
      </trkpt>
      <trkpt lat="44.55562" lon="3.2974">
        <ele>730</ele>
        <time>2009-02-24T14:31:18.000Z</time>
      </trkpt>
      <trkpt lat="44.55567" lon="3.29746">
        <ele>731</ele>
        <time>2009-02-24T14:31:24.000Z</time>
      </trkpt>
      <trkpt lat="44.55573" lon="3.2975">
        <ele>740</ele>
        <time>2009-02-24T14:31:37.000Z</time>
      </trkpt>
      <trkpt lat="44.55582" lon="3.29752">
        <ele>744</ele>
        <time>2009-02-24T14:31:43.000Z</time>
      </trkpt>
      <trkpt lat="44.55588" lon="3.29759">
        <ele>746</ele>
        <time>2009-02-24T14:31:55.000Z</time>
      </trkpt>
      <trkpt lat="44.55601" lon="3.29768">
        <ele>746</ele>
        <time>2009-02-24T14:32:10.000Z</time>
      </trkpt>
      <trkpt lat="44.55606" lon="3.29772">
        <ele>749</ele>
        <time>2009-02-24T14:32:16.000Z</time>
      </trkpt>
      <trkpt lat="44.55611" lon="3.29773">
        <ele>745</ele>
        <time>2009-02-24T14:32:28.000Z</time>
      </trkpt>
      <trkpt lat="44.55616" lon="3.29763">
        <ele>766</ele>
        <time>2009-02-24T14:32:48.000Z</time>
      </trkpt>
      <trkpt lat="44.55618" lon="3.29771">
        <ele>760</ele>
        <time>2009-02-24T14:32:57.000Z</time>
      </trkpt>
      <trkpt lat="44.55626" lon="3.2978">
        <ele>749</ele>
        <time>2009-02-24T14:33:11.000Z</time>
      </trkpt>
      <trkpt lat="44.55636" lon="3.29798">
        <ele>745</ele>
        <time>2009-02-24T14:33:22.000Z</time>
      </trkpt>
      <trkpt lat="44.55654" lon="3.298">
        <ele>746</ele>
        <time>2009-02-24T14:33:49.000Z</time>
      </trkpt>
      <trkpt lat="44.55664" lon="3.29803">
        <ele>756</ele>
        <time>2009-02-24T14:34:04.000Z</time>
      </trkpt>
      <trkpt lat="44.5567" lon="3.29809">
        <ele>753</ele>
        <time>2009-02-24T14:34:15.000Z</time>
      </trkpt>
      <trkpt lat="44.55676" lon="3.2981">
        <ele>755</ele>
        <time>2009-02-24T14:34:21.000Z</time>
      </trkpt>
      <trkpt lat="44.5569" lon="3.29821">
        <ele>763</ele>
        <time>2009-02-24T14:34:40.000Z</time>
      </trkpt>
      <trkpt lat="44.55698" lon="3.29826">
        <ele>761</ele>
        <time>2009-02-24T14:34:53.000Z</time>
      </trkpt>
      <trkpt lat="44.55699" lon="3.29825">
        <ele>767</ele>
        <time>2009-02-24T14:35:12.000Z</time>
      </trkpt>
      <trkpt lat="44.557" lon="3.29823">
        <ele>760</ele>
        <time>2009-02-24T14:35:44.000Z</time>
      </trkpt>
      <trkpt lat="44.55707" lon="3.29827">
        <ele>760</ele>
        <time>2009-02-24T14:36:43.000Z</time>
      </trkpt>
      <trkpt lat="44.55724" lon="3.29841">
        <ele>761</ele>
        <time>2009-02-24T14:37:06.000Z</time>
      </trkpt>
      <trkpt lat="44.5573" lon="3.29842">
        <ele>764</ele>
        <time>2009-02-24T14:37:13.000Z</time>
      </trkpt>
      <trkpt lat="44.55771" lon="3.29844">
        <ele>768</ele>
        <time>2009-02-24T14:38:07.000Z</time>
      </trkpt>
      <trkpt lat="44.55777" lon="3.29844">
        <ele>769</ele>
        <time>2009-02-24T14:38:14.000Z</time>
      </trkpt>
      <trkpt lat="44.55799" lon="3.29848">
        <ele>767</ele>
        <time>2009-02-24T14:38:41.000Z</time>
      </trkpt>
      <trkpt lat="44.55814" lon="3.29848">
        <ele>765</ele>
        <time>2009-02-24T14:39:01.000Z</time>
      </trkpt>
      <trkpt lat="44.55836" lon="3.29854">
        <ele>773</ele>
        <time>2009-02-24T14:39:28.000Z</time>
      </trkpt>
      <trkpt lat="44.55841" lon="3.29857">
        <ele>773</ele>
        <time>2009-02-24T14:39:34.000Z</time>
      </trkpt>
      <trkpt lat="44.55847" lon="3.29861">
        <ele>773</ele>
        <time>2009-02-24T14:39:40.000Z</time>
      </trkpt>
      <trkpt lat="44.55865" lon="3.29875">
        <ele>770</ele>
        <time>2009-02-24T14:40:08.000Z</time>
      </trkpt>
      <trkpt lat="44.55882" lon="3.29881">
        <ele>774</ele>
        <time>2009-02-24T14:40:24.000Z</time>
      </trkpt>
      <trkpt lat="44.55894" lon="3.29891">
        <ele>774</ele>
        <time>2009-02-24T14:40:43.000Z</time>
      </trkpt>
      <trkpt lat="44.55916" lon="3.29893">
        <ele>773</ele>
        <time>2009-02-24T14:41:10.000Z</time>
      </trkpt>
      <trkpt lat="44.5593" lon="3.2989">
        <ele>772</ele>
        <time>2009-02-24T14:41:29.000Z</time>
      </trkpt>
      <trkpt lat="44.55938" lon="3.29893">
        <ele>770</ele>
        <time>2009-02-24T14:41:36.000Z</time>
      </trkpt>
      <trkpt lat="44.55944" lon="3.29894">
        <ele>771</ele>
        <time>2009-02-24T14:41:44.000Z</time>
      </trkpt>
      <trkpt lat="44.55956" lon="3.29894">
        <ele>779</ele>
        <time>2009-02-24T14:41:58.000Z</time>
      </trkpt>
      <trkpt lat="44.5598" lon="3.29903">
        <ele>780</ele>
        <time>2009-02-24T14:42:30.000Z</time>
      </trkpt>
      <trkpt lat="44.5599" lon="3.29903">
        <ele>779</ele>
        <time>2009-02-24T14:42:41.000Z</time>
      </trkpt>
      <trkpt lat="44.55997" lon="3.29905">
        <ele>773</ele>
        <time>2009-02-24T14:42:55.000Z</time>
      </trkpt>
      <trkpt lat="44.56004" lon="3.29906">
        <ele>772</ele>
        <time>2009-02-24T14:43:03.000Z</time>
      </trkpt>
      <trkpt lat="44.56011" lon="3.29909">
        <ele>772</ele>
        <time>2009-02-24T14:43:17.000Z</time>
      </trkpt>
      <trkpt lat="44.56021" lon="3.29909">
        <ele>774</ele>
        <time>2009-02-24T14:43:28.000Z</time>
      </trkpt>
      <trkpt lat="44.56028" lon="3.29909">
        <ele>775</ele>
        <time>2009-02-24T14:43:40.000Z</time>
      </trkpt>
      <trkpt lat="44.56062" lon="3.29917">
        <ele>780</ele>
        <time>2009-02-24T14:44:25.000Z</time>
      </trkpt>
      <trkpt lat="44.56078" lon="3.29923">
        <ele>779</ele>
        <time>2009-02-24T14:44:42.000Z</time>
      </trkpt>
      <trkpt lat="44.56087" lon="3.29925">
        <ele>783</ele>
        <time>2009-02-24T14:44:51.000Z</time>
      </trkpt>
      <trkpt lat="44.56091" lon="3.29925">
        <ele>775</ele>
        <time>2009-02-24T14:45:24.000Z</time>
      </trkpt>
      <trkpt lat="44.56086" lon="3.29935">
        <ele>778</ele>
        <time>2009-02-24T14:45:38.000Z</time>
      </trkpt>
      <trkpt lat="44.56083" lon="3.29942">
        <ele>781</ele>
        <time>2009-02-24T14:45:47.000Z</time>
      </trkpt>
      <trkpt lat="44.56081" lon="3.29954">
        <ele>784</ele>
        <time>2009-02-24T14:45:59.000Z</time>
      </trkpt>
      <trkpt lat="44.56078" lon="3.29964">
        <ele>786</ele>
        <time>2009-02-24T14:46:12.000Z</time>
      </trkpt>
      <trkpt lat="44.56075" lon="3.2997">
        <ele>789</ele>
        <time>2009-02-24T14:46:25.000Z</time>
      </trkpt>
      <trkpt lat="44.56074" lon="3.29982">
        <ele>792</ele>
        <time>2009-02-24T14:46:41.000Z</time>
      </trkpt>
      <trkpt lat="44.56073" lon="3.2999">
        <ele>793</ele>
        <time>2009-02-24T14:46:51.000Z</time>
      </trkpt>
      <trkpt lat="44.56073" lon="3.29999">
        <ele>794</ele>
        <time>2009-02-24T14:47:47.000Z</time>
      </trkpt>
      <trkpt lat="44.56073" lon="3.30013">
        <ele>787</ele>
        <time>2009-02-24T14:48:09.000Z</time>
      </trkpt>
      <trkpt lat="44.56071" lon="3.3002">
        <ele>791</ele>
        <time>2009-02-24T14:48:17.000Z</time>
      </trkpt>
      <trkpt lat="44.56072" lon="3.30028">
        <ele>793</ele>
        <time>2009-02-24T14:48:26.000Z</time>
      </trkpt>
      <trkpt lat="44.56067" lon="3.30045">
        <ele>797</ele>
        <time>2009-02-24T14:48:39.000Z</time>
      </trkpt>
      <trkpt lat="44.56059" lon="3.30063">
        <ele>799</ele>
        <time>2009-02-24T14:48:55.000Z</time>
      </trkpt>
      <trkpt lat="44.56055" lon="3.3007">
        <ele>796</ele>
        <time>2009-02-24T14:49:04.000Z</time>
      </trkpt>
      <trkpt lat="44.56055" lon="3.30076">
        <ele>794</ele>
        <time>2009-02-24T14:49:21.000Z</time>
      </trkpt>
      <trkpt lat="44.56051" lon="3.30087">
        <ele>794</ele>
        <time>2009-02-24T14:49:37.000Z</time>
      </trkpt>
      <trkpt lat="44.5605" lon="3.301">
        <ele>793</ele>
        <time>2009-02-24T14:49:50.000Z</time>
      </trkpt>
      <trkpt lat="44.56048" lon="3.30112">
        <ele>795</ele>
        <time>2009-02-24T14:50:21.000Z</time>
      </trkpt>
      <trkpt lat="44.56046" lon="3.30119">
        <ele>794</ele>
        <time>2009-02-24T14:50:27.000Z</time>
      </trkpt>
      <trkpt lat="44.56039" lon="3.30137">
        <ele>792</ele>
        <time>2009-02-24T14:50:49.000Z</time>
      </trkpt>
      <trkpt lat="44.56033" lon="3.30138">
        <ele>792</ele>
        <time>2009-02-24T14:50:56.000Z</time>
      </trkpt>
      <trkpt lat="44.56024" lon="3.30136">
        <ele>791</ele>
        <time>2009-02-24T14:51:07.000Z</time>
      </trkpt>
      <trkpt lat="44.56018" lon="3.30133">
        <ele>788</ele>
        <time>2009-02-24T14:51:18.000Z</time>
      </trkpt>
      <trkpt lat="44.56013" lon="3.30133">
        <ele>790</ele>
        <time>2009-02-24T14:51:53.000Z</time>
      </trkpt>
      <trkpt lat="44.56008" lon="3.30134">
        <ele>787</ele>
        <time>2009-02-24T14:52:52.000Z</time>
      </trkpt>
      <trkpt lat="44.55999" lon="3.30136">
        <ele>788</ele>
        <time>2009-02-24T14:53:03.000Z</time>
      </trkpt>
      <trkpt lat="44.55993" lon="3.30136">
        <ele>788</ele>
        <time>2009-02-24T14:53:17.000Z</time>
      </trkpt>
      <trkpt lat="44.55987" lon="3.30136">
        <ele>784</ele>
        <time>2009-02-24T14:53:34.000Z</time>
      </trkpt>
      <trkpt lat="44.55958" lon="3.30136">
        <ele>782</ele>
        <time>2009-02-24T14:54:09.000Z</time>
      </trkpt>
      <trkpt lat="44.55952" lon="3.30135">
        <ele>782</ele>
        <time>2009-02-24T14:54:32.000Z</time>
      </trkpt>
      <trkpt lat="44.55943" lon="3.30135">
        <ele>778</ele>
        <time>2009-02-24T14:54:51.000Z</time>
      </trkpt>
      <trkpt lat="44.55936" lon="3.30135">
        <ele>777</ele>
        <time>2009-02-24T14:54:55.000Z</time>
      </trkpt>
      <trkpt lat="44.5593" lon="3.30134">
        <ele>779</ele>
        <time>2009-02-24T14:55:07.000Z</time>
      </trkpt>
      <trkpt lat="44.55906" lon="3.30132">
        <ele>781</ele>
        <time>2009-02-24T14:55:53.000Z</time>
      </trkpt>
      <trkpt lat="44.55901" lon="3.30129">
        <ele>779</ele>
        <time>2009-02-24T14:56:05.000Z</time>
      </trkpt>
      <trkpt lat="44.55891" lon="3.30127">
        <ele>771</ele>
        <time>2009-02-24T14:56:30.000Z</time>
      </trkpt>
      <trkpt lat="44.55875" lon="3.30127">
        <ele>777</ele>
        <time>2009-02-24T14:57:12.000Z</time>
      </trkpt>
      <trkpt lat="44.55862" lon="3.30124">
        <ele>775</ele>
        <time>2009-02-24T14:57:39.000Z</time>
      </trkpt>
      <trkpt lat="44.55856" lon="3.30124">
        <ele>775</ele>
        <time>2009-02-24T14:57:51.000Z</time>
      </trkpt>
      <trkpt lat="44.55833" lon="3.30124">
        <ele>777</ele>
        <time>2009-02-24T14:58:15.000Z</time>
      </trkpt>
      <trkpt lat="44.55822" lon="3.3012">
        <ele>775</ele>
        <time>2009-02-24T14:58:28.000Z</time>
      </trkpt>
      <trkpt lat="44.55792" lon="3.30121">
        <ele>775</ele>
        <time>2009-02-24T14:59:03.000Z</time>
      </trkpt>
      <trkpt lat="44.55772" lon="3.30122">
        <ele>778</ele>
        <time>2009-02-24T14:59:22.000Z</time>
      </trkpt>
      <trkpt lat="44.55765" lon="3.30121">
        <ele>778</ele>
        <time>2009-02-24T14:59:47.000Z</time>
      </trkpt>
      <trkpt lat="44.55757" lon="3.30116">
        <ele>778</ele>
        <time>2009-02-24T15:00:08.000Z</time>
      </trkpt>
      <trkpt lat="44.55724" lon="3.30121">
        <ele>771</ele>
        <time>2009-02-24T15:00:43.000Z</time>
      </trkpt>
      <trkpt lat="44.55678" lon="3.30123">
        <ele>773</ele>
        <time>2009-02-24T15:01:27.000Z</time>
      </trkpt>
      <trkpt lat="44.55677" lon="3.30122">
        <ele>773</ele>
        <time>2009-02-24T15:01:28.000Z</time>
      </trkpt>
      <trkpt lat="44.55656" lon="3.30126">
        <ele>770</ele>
        <time>2009-02-24T15:01:53.000Z</time>
      </trkpt>
      <trkpt lat="44.55651" lon="3.30132">
        <ele>767</ele>
        <time>2009-02-24T15:01:59.000Z</time>
      </trkpt>
      <trkpt lat="44.55646" lon="3.30136">
        <ele>764</ele>
        <time>2009-02-24T15:02:05.000Z</time>
      </trkpt>
      <trkpt lat="44.5563" lon="3.3014">
        <ele>762</ele>
        <time>2009-02-24T15:02:25.000Z</time>
      </trkpt>
      <trkpt lat="44.55624" lon="3.30139">
        <ele>763</ele>
        <time>2009-02-24T15:02:32.000Z</time>
      </trkpt>
      <trkpt lat="44.55582" lon="3.30144">
        <ele>767</ele>
        <time>2009-02-24T15:03:17.000Z</time>
      </trkpt>
      <trkpt lat="44.55537" lon="3.30152">
        <ele>763</ele>
        <time>2009-02-24T15:04:04.000Z</time>
      </trkpt>
      <trkpt lat="44.55536" lon="3.30152">
        <ele>763</ele>
        <time>2009-02-24T15:04:05.000Z</time>
      </trkpt>
      <trkpt lat="44.55532" lon="3.30151">
        <ele>762</ele>
        <time>2009-02-24T15:04:10.000Z</time>
      </trkpt>
      <trkpt lat="44.55527" lon="3.30153">
        <ele>762</ele>
        <time>2009-02-24T15:04:16.000Z</time>
      </trkpt>
      <trkpt lat="44.55512" lon="3.30158">
        <ele>761</ele>
        <time>2009-02-24T15:04:31.000Z</time>
      </trkpt>
      <trkpt lat="44.55506" lon="3.30156">
        <ele>761</ele>
        <time>2009-02-24T15:04:37.000Z</time>
      </trkpt>
      <trkpt lat="44.55496" lon="3.30143">
        <ele>760</ele>
        <time>2009-02-24T15:04:50.000Z</time>
      </trkpt>
      <trkpt lat="44.55491" lon="3.30137">
        <ele>762</ele>
        <time>2009-02-24T15:04:56.000Z</time>
      </trkpt>
      <trkpt lat="44.5546" lon="3.3009">
        <ele>763</ele>
        <time>2009-02-24T15:05:39.000Z</time>
      </trkpt>
      <trkpt lat="44.5546" lon="3.3009">
        <ele>763</ele>
        <time>2009-02-24T15:05:40.000Z</time>
      </trkpt>
      <trkpt lat="44.5546" lon="3.30085">
        <ele>763</ele>
        <time>2009-02-24T15:05:54.000Z</time>
      </trkpt>
      <trkpt lat="44.55463" lon="3.30056">
        <ele>762</ele>
        <time>2009-02-24T15:06:16.000Z</time>
      </trkpt>
      <trkpt lat="44.55462" lon="3.30048">
        <ele>761</ele>
        <time>2009-02-24T15:06:24.000Z</time>
      </trkpt>
      <trkpt lat="44.55458" lon="3.30037">
        <ele>765</ele>
        <time>2009-02-24T15:06:54.000Z</time>
      </trkpt>
      <trkpt lat="44.55457" lon="3.30031">
        <ele>761</ele>
        <time>2009-02-24T15:07:25.000Z</time>
      </trkpt>
      <trkpt lat="44.55455" lon="3.30024">
        <ele>761</ele>
        <time>2009-02-24T15:07:33.000Z</time>
      </trkpt>
      <trkpt lat="44.55448" lon="3.30017">
        <ele>760</ele>
        <time>2009-02-24T15:07:43.000Z</time>
      </trkpt>
      <trkpt lat="44.55442" lon="3.30008">
        <ele>757</ele>
        <time>2009-02-24T15:07:52.000Z</time>
      </trkpt>
      <trkpt lat="44.55438" lon="3.29996">
        <ele>756</ele>
        <time>2009-02-24T15:08:02.000Z</time>
      </trkpt>
      <trkpt lat="44.55431" lon="3.29979">
        <ele>758</ele>
        <time>2009-02-24T15:08:23.000Z</time>
      </trkpt>
      <trkpt lat="44.55428" lon="3.29972">
        <ele>757</ele>
        <time>2009-02-24T15:08:29.000Z</time>
      </trkpt>
      <trkpt lat="44.55421" lon="3.2996">
        <ele>755</ele>
        <time>2009-02-24T15:08:44.000Z</time>
      </trkpt>
      <trkpt lat="44.55416" lon="3.29956">
        <ele>753</ele>
        <time>2009-02-24T15:08:57.000Z</time>
      </trkpt>
      <trkpt lat="44.55412" lon="3.29948">
        <ele>754</ele>
        <time>2009-02-24T15:09:05.000Z</time>
      </trkpt>
      <trkpt lat="44.5541" lon="3.2994">
        <ele>756</ele>
        <time>2009-02-24T15:09:11.000Z</time>
      </trkpt>
      <trkpt lat="44.55407" lon="3.29928">
        <ele>757</ele>
        <time>2009-02-24T15:09:18.000Z</time>
      </trkpt>
      <trkpt lat="44.55401" lon="3.2992">
        <ele>756</ele>
        <time>2009-02-24T15:09:48.000Z</time>
      </trkpt>
      <trkpt lat="44.55399" lon="3.29921">
        <ele>756</ele>
        <time>2009-02-24T15:10:27.000Z</time>
      </trkpt>
      <trkpt lat="44.55394" lon="3.29908">
        <ele>762</ele>
        <time>2009-02-24T15:11:20.000Z</time>
      </trkpt>
      <trkpt lat="44.55391" lon="3.29897">
        <ele>759</ele>
        <time>2009-02-24T15:11:33.000Z</time>
      </trkpt>
      <trkpt lat="44.55384" lon="3.29874">
        <ele>754</ele>
        <time>2009-02-24T15:11:58.000Z</time>
      </trkpt>
      <trkpt lat="44.55381" lon="3.29866">
        <ele>753</ele>
        <time>2009-02-24T15:12:06.000Z</time>
      </trkpt>
      <trkpt lat="44.55379" lon="3.29859">
        <ele>753</ele>
        <time>2009-02-24T15:12:11.000Z</time>
      </trkpt>
      <trkpt lat="44.55375" lon="3.29834">
        <ele>753</ele>
        <time>2009-02-24T15:12:32.000Z</time>
      </trkpt>
      <trkpt lat="44.55373" lon="3.29821">
        <ele>754</ele>
        <time>2009-02-24T15:12:40.000Z</time>
      </trkpt>
      <trkpt lat="44.5537" lon="3.29814">
        <ele>755</ele>
        <time>2009-02-24T15:12:46.000Z</time>
      </trkpt>
      <trkpt lat="44.55367" lon="3.29807">
        <ele>755</ele>
        <time>2009-02-24T15:12:52.000Z</time>
      </trkpt>
      <trkpt lat="44.55362" lon="3.29797">
        <ele>753</ele>
        <time>2009-02-24T15:13:03.000Z</time>
      </trkpt>
      <trkpt lat="44.55364" lon="3.29792">
        <ele>760</ele>
        <time>2009-02-24T15:14:01.000Z</time>
      </trkpt>
      <trkpt lat="44.55363" lon="3.29793">
        <ele>759</ele>
        <time>2009-02-24T15:16:02.000Z</time>
      </trkpt>
      <trkpt lat="44.55362" lon="3.29784">
        <ele>759</ele>
        <time>2009-02-24T15:16:11.000Z</time>
      </trkpt>
      <trkpt lat="44.55359" lon="3.29781">
        <ele>756</ele>
        <time>2009-02-24T15:16:44.000Z</time>
      </trkpt>
      <trkpt lat="44.55347" lon="3.2977">
        <ele>754</ele>
        <time>2009-02-24T15:17:06.000Z</time>
      </trkpt>
      <trkpt lat="44.55333" lon="3.29756">
        <ele>752</ele>
        <time>2009-02-24T15:18:15.000Z</time>
      </trkpt>
      <trkpt lat="44.55324" lon="3.29744">
        <ele>750</ele>
        <time>2009-02-24T15:18:28.000Z</time>
      </trkpt>
      <trkpt lat="44.55313" lon="3.29732">
        <ele>743</ele>
        <time>2009-02-24T15:19:13.000Z</time>
      </trkpt>
      <trkpt lat="44.55309" lon="3.29726">
        <ele>742</ele>
        <time>2009-02-24T15:20:47.000Z</time>
      </trkpt>
      <trkpt lat="44.55306" lon="3.29719">
        <ele>743</ele>
        <time>2009-02-24T15:21:38.000Z</time>
      </trkpt>
      <trkpt lat="44.55299" lon="3.29706">
        <ele>743</ele>
        <time>2009-02-24T15:21:51.000Z</time>
      </trkpt>
      <trkpt lat="44.55301" lon="3.29696">
        <ele>743</ele>
        <time>2009-02-24T15:22:02.000Z</time>
      </trkpt>
      <trkpt lat="44.55303" lon="3.2969">
        <ele>742</ele>
        <time>2009-02-24T15:23:07.000Z</time>
      </trkpt>
      <trkpt lat="44.55299" lon="3.29699">
        <ele>739</ele>
        <time>2009-02-24T15:23:20.000Z</time>
      </trkpt>
      <trkpt lat="44.55291" lon="3.29693">
        <ele>738</ele>
        <time>2009-02-24T15:23:40.000Z</time>
      </trkpt>
      <trkpt lat="44.55286" lon="3.29689">
        <ele>737</ele>
        <time>2009-02-24T15:23:48.000Z</time>
      </trkpt>
      <trkpt lat="44.55286" lon="3.29681">
        <ele>734</ele>
        <time>2009-02-24T15:23:56.000Z</time>
      </trkpt>
      <trkpt lat="44.55285" lon="3.29673">
        <ele>730</ele>
        <time>2009-02-24T15:24:07.000Z</time>
      </trkpt>
      <trkpt lat="44.55281" lon="3.29667">
        <ele>726</ele>
        <time>2009-02-24T15:24:17.000Z</time>
      </trkpt>
      <trkpt lat="44.55279" lon="3.29659">
        <ele>724</ele>
        <time>2009-02-24T15:24:23.000Z</time>
      </trkpt>
      <trkpt lat="44.55274" lon="3.29654">
        <ele>723</ele>
        <time>2009-02-24T15:24:32.000Z</time>
      </trkpt>
      <trkpt lat="44.55266" lon="3.29647">
        <ele>724</ele>
        <time>2009-02-24T15:24:40.000Z</time>
      </trkpt>
      <trkpt lat="44.55236" lon="3.29608">
        <ele>712</ele>
        <time>2009-02-24T15:25:18.000Z</time>
      </trkpt>
      <trkpt lat="44.55228" lon="3.29604">
        <ele>710</ele>
        <time>2009-02-24T15:25:31.000Z</time>
      </trkpt>
      <trkpt lat="44.55223" lon="3.29602">
        <ele>708</ele>
        <time>2009-02-24T15:25:46.000Z</time>
      </trkpt>
      <trkpt lat="44.55225" lon="3.29595">
        <ele>711</ele>
        <time>2009-02-24T15:25:53.000Z</time>
      </trkpt>
      <trkpt lat="44.55227" lon="3.29588">
        <ele>712</ele>
        <time>2009-02-24T15:26:00.000Z</time>
      </trkpt>
      <trkpt lat="44.55222" lon="3.29582">
        <ele>710</ele>
        <time>2009-02-24T15:26:07.000Z</time>
      </trkpt>
      <trkpt lat="44.55204" lon="3.29568">
        <ele>699</ele>
        <time>2009-02-24T15:26:35.000Z</time>
      </trkpt>
      <trkpt lat="44.55198" lon="3.29565">
        <ele>697</ele>
        <time>2009-02-24T15:26:43.000Z</time>
      </trkpt>
      <trkpt lat="44.55189" lon="3.29559">
        <ele>695</ele>
        <time>2009-02-24T15:26:52.000Z</time>
      </trkpt>
      <trkpt lat="44.55183" lon="3.29557">
        <ele>692</ele>
        <time>2009-02-24T15:27:00.000Z</time>
      </trkpt>
      <trkpt lat="44.5516" lon="3.29545">
        <ele>688</ele>
        <time>2009-02-24T15:27:27.000Z</time>
      </trkpt>
      <trkpt lat="44.5515" lon="3.29538">
        <ele>690</ele>
        <time>2009-02-24T15:27:49.000Z</time>
      </trkpt>
      <trkpt lat="44.55147" lon="3.29532">
        <ele>688</ele>
        <time>2009-02-24T15:28:09.000Z</time>
      </trkpt>
      <trkpt lat="44.55141" lon="3.29531">
        <ele>685</ele>
        <time>2009-02-24T15:28:17.000Z</time>
      </trkpt>
      <trkpt lat="44.55135" lon="3.29531">
        <ele>683</ele>
        <time>2009-02-24T15:28:25.000Z</time>
      </trkpt>
      <trkpt lat="44.55122" lon="3.29525">
        <ele>676</ele>
        <time>2009-02-24T15:29:12.000Z</time>
      </trkpt>
      <trkpt lat="44.55106" lon="3.29526">
        <ele>674</ele>
        <time>2009-02-24T15:29:28.000Z</time>
      </trkpt>
      <trkpt lat="44.551" lon="3.2953">
        <ele>674</ele>
        <time>2009-02-24T15:29:34.000Z</time>
      </trkpt>
      <trkpt lat="44.55091" lon="3.29529">
        <ele>672</ele>
        <time>2009-02-24T15:29:43.000Z</time>
      </trkpt>
      <trkpt lat="44.55079" lon="3.29527">
        <ele>673</ele>
        <time>2009-02-24T15:29:58.000Z</time>
      </trkpt>
      <trkpt lat="44.5505" lon="3.2951">
        <ele>661</ele>
        <time>2009-02-24T15:30:37.000Z</time>
      </trkpt>
      <trkpt lat="44.55045" lon="3.29509">
        <ele>658</ele>
        <time>2009-02-24T15:30:43.000Z</time>
      </trkpt>
      <trkpt lat="44.55042" lon="3.29517">
        <ele>655</ele>
        <time>2009-02-24T15:30:52.000Z</time>
      </trkpt>
      <trkpt lat="44.55041" lon="3.29524">
        <ele>655</ele>
        <time>2009-02-24T15:31:01.000Z</time>
      </trkpt>
      <trkpt lat="44.55041" lon="3.29536">
        <ele>652</ele>
        <time>2009-02-24T15:31:18.000Z</time>
      </trkpt>
      <trkpt lat="44.55042" lon="3.29527">
        <ele>658</ele>
        <time>2009-02-24T15:31:32.000Z</time>
      </trkpt>
      <trkpt lat="44.5504" lon="3.29519">
        <ele>661</ele>
        <time>2009-02-24T15:31:38.000Z</time>
      </trkpt>
      <trkpt lat="44.55039" lon="3.29508">
        <ele>664</ele>
        <time>2009-02-24T15:31:47.000Z</time>
      </trkpt>
      <trkpt lat="44.55036" lon="3.29489">
        <ele>666</ele>
        <time>2009-02-24T15:31:57.000Z</time>
      </trkpt>
      <trkpt lat="44.55036" lon="3.29472">
        <ele>666</ele>
        <time>2009-02-24T15:32:09.000Z</time>
      </trkpt>
      <trkpt lat="44.5503" lon="3.29467">
        <ele>662</ele>
        <time>2009-02-24T15:32:18.000Z</time>
      </trkpt>
      <trkpt lat="44.55025" lon="3.29463">
        <ele>659</ele>
        <time>2009-02-24T15:32:24.000Z</time>
      </trkpt>
      <trkpt lat="44.55016" lon="3.29462">
        <ele>654</ele>
        <time>2009-02-24T15:32:31.000Z</time>
      </trkpt>
      <trkpt lat="44.55004" lon="3.29464">
        <ele>655</ele>
        <time>2009-02-24T15:32:40.000Z</time>
      </trkpt>
      <trkpt lat="44.54987" lon="3.29472">
        <ele>650</ele>
        <time>2009-02-24T15:32:57.000Z</time>
      </trkpt>
      <trkpt lat="44.54987" lon="3.29485">
        <ele>651</ele>
        <time>2009-02-24T15:33:06.000Z</time>
      </trkpt>
      <trkpt lat="44.5499" lon="3.29491">
        <ele>654</ele>
        <time>2009-02-24T15:33:11.000Z</time>
      </trkpt>
      <trkpt lat="44.54996" lon="3.29511">
        <ele>660</ele>
        <time>2009-02-24T15:33:22.000Z</time>
      </trkpt>
      <trkpt lat="44.54995" lon="3.29534">
        <ele>658</ele>
        <time>2009-02-24T15:33:35.000Z</time>
      </trkpt>
      <trkpt lat="44.54993" lon="3.29542">
        <ele>651</ele>
        <time>2009-02-24T15:33:51.000Z</time>
      </trkpt>
      <trkpt lat="44.54996" lon="3.2956">
        <ele>652</ele>
        <time>2009-02-24T15:34:06.000Z</time>
      </trkpt>
      <trkpt lat="44.54998" lon="3.29567">
        <ele>652</ele>
        <time>2009-02-24T15:34:13.000Z</time>
      </trkpt>
      <trkpt lat="44.55004" lon="3.2959">
        <ele>650</ele>
        <time>2009-02-24T15:34:28.000Z</time>
      </trkpt>
      <trkpt lat="44.55007" lon="3.29603">
        <ele>648</ele>
        <time>2009-02-24T15:34:37.000Z</time>
      </trkpt>
      <trkpt lat="44.5501" lon="3.29612">
        <ele>648</ele>
        <time>2009-02-24T15:34:43.000Z</time>
      </trkpt>
      <trkpt lat="44.55018" lon="3.29641">
        <ele>639</ele>
        <time>2009-02-24T15:35:39.000Z</time>
      </trkpt>
      <trkpt lat="44.55021" lon="3.29648">
        <ele>647</ele>
        <time>2009-02-24T15:35:54.000Z</time>
      </trkpt>
      <trkpt lat="44.55029" lon="3.29681">
        <ele>648</ele>
        <time>2009-02-24T15:36:20.000Z</time>
      </trkpt>
      <trkpt lat="44.55031" lon="3.29694">
        <ele>653</ele>
        <time>2009-02-24T15:36:31.000Z</time>
      </trkpt>
      <trkpt lat="44.55036" lon="3.2971">
        <ele>652</ele>
        <time>2009-02-24T15:36:46.000Z</time>
      </trkpt>
      <trkpt lat="44.55043" lon="3.29713">
        <ele>660</ele>
        <time>2009-02-24T15:37:19.000Z</time>
      </trkpt>
      <trkpt lat="44.55054" lon="3.29723">
        <ele>648</ele>
        <time>2009-02-24T15:37:36.000Z</time>
      </trkpt>
      <trkpt lat="44.55062" lon="3.29719">
        <ele>650</ele>
        <time>2009-02-24T15:38:01.000Z</time>
      </trkpt>
      <trkpt lat="44.55073" lon="3.29719">
        <ele>654</ele>
        <time>2009-02-24T15:41:15.000Z</time>
      </trkpt>
      <trkpt lat="44.55066" lon="3.29716">
        <ele>648</ele>
        <time>2009-02-24T15:41:31.000Z</time>
      </trkpt>
      <trkpt lat="44.55062" lon="3.29715">
        <ele>652</ele>
        <time>2009-02-24T15:42:10.000Z</time>
      </trkpt>
      <trkpt lat="44.55068" lon="3.29716">
        <ele>653</ele>
        <time>2009-02-24T15:43:05.000Z</time>
      </trkpt>
      <trkpt lat="44.55063" lon="3.29717">
        <ele>644</ele>
        <time>2009-02-24T15:45:17.000Z</time>
      </trkpt>
      <trkpt lat="44.55057" lon="3.2972">
        <ele>648</ele>
        <time>2009-02-24T15:47:13.000Z</time>
      </trkpt>
      <trkpt lat="44.55052" lon="3.29719">
        <ele>646</ele>
        <time>2009-02-24T15:47:19.000Z</time>
      </trkpt>
      <trkpt lat="44.55046" lon="3.29715">
        <ele>641</ele>
        <time>2009-02-24T15:47:30.000Z</time>
      </trkpt>
      <trkpt lat="44.55039" lon="3.29708">
        <ele>642</ele>
        <time>2009-02-24T15:47:39.000Z</time>
      </trkpt>
      <trkpt lat="44.55032" lon="3.29678">
        <ele>658</ele>
        <time>2009-02-24T15:48:02.000Z</time>
      </trkpt>
      <trkpt lat="44.55027" lon="3.29659">
        <ele>658</ele>
        <time>2009-02-24T15:48:14.000Z</time>
      </trkpt>
      <trkpt lat="44.55014" lon="3.29622">
        <ele>647</ele>
        <time>2009-02-24T15:48:37.000Z</time>
      </trkpt>
      <trkpt lat="44.55006" lon="3.29589">
        <ele>643</ele>
        <time>2009-02-24T15:48:59.000Z</time>
      </trkpt>
      <trkpt lat="44.54995" lon="3.29549">
        <ele>647</ele>
        <time>2009-02-24T15:49:27.000Z</time>
      </trkpt>
      <trkpt lat="44.54991" lon="3.29528">
        <ele>648</ele>
        <time>2009-02-24T15:49:43.000Z</time>
      </trkpt>
      <trkpt lat="44.54988" lon="3.2952">
        <ele>647</ele>
        <time>2009-02-24T15:49:49.000Z</time>
      </trkpt>
      <trkpt lat="44.54984" lon="3.29499">
        <ele>642</ele>
        <time>2009-02-24T15:50:01.000Z</time>
      </trkpt>
      <trkpt lat="44.54983" lon="3.29486">
        <ele>641</ele>
        <time>2009-02-24T15:50:08.000Z</time>
      </trkpt>
      <trkpt lat="44.54989" lon="3.29476">
        <ele>648</ele>
        <time>2009-02-24T15:50:15.000Z</time>
      </trkpt>
      <trkpt lat="44.55016" lon="3.29466">
        <ele>652</ele>
        <time>2009-02-24T15:50:37.000Z</time>
      </trkpt>
      <trkpt lat="44.55021" lon="3.29465">
        <ele>652</ele>
        <time>2009-02-24T15:50:43.000Z</time>
      </trkpt>
      <trkpt lat="44.5503" lon="3.29463">
        <ele>650</ele>
        <time>2009-02-24T15:50:54.000Z</time>
      </trkpt>
      <trkpt lat="44.55033" lon="3.29449">
        <ele>647</ele>
        <time>2009-02-24T15:51:03.000Z</time>
      </trkpt>
      <trkpt lat="44.55038" lon="3.29431">
        <ele>649</ele>
        <time>2009-02-24T15:51:15.000Z</time>
      </trkpt>
      <trkpt lat="44.55047" lon="3.29427">
        <ele>648</ele>
        <time>2009-02-24T15:51:23.000Z</time>
      </trkpt>
      <trkpt lat="44.55058" lon="3.29425">
        <ele>645</ele>
        <time>2009-02-24T15:51:35.000Z</time>
      </trkpt>
      <trkpt lat="44.55064" lon="3.29426">
        <ele>644</ele>
        <time>2009-02-24T15:51:42.000Z</time>
      </trkpt>
      <trkpt lat="44.55068" lon="3.29421">
        <ele>648</ele>
        <time>2009-02-24T15:52:29.000Z</time>
      </trkpt>
      <trkpt lat="44.55072" lon="3.29415">
        <ele>648</ele>
        <time>2009-02-24T15:52:51.000Z</time>
      </trkpt>
      <trkpt lat="44.55075" lon="3.29405">
        <ele>652</ele>
        <time>2009-02-24T15:53:12.000Z</time>
      </trkpt>
      <trkpt lat="44.55076" lon="3.29397">
        <ele>650</ele>
        <time>2009-02-24T15:53:19.000Z</time>
      </trkpt>
      <trkpt lat="44.55099" lon="3.29391">
        <ele>649</ele>
        <time>2009-02-24T15:53:46.000Z</time>
      </trkpt>
      <trkpt lat="44.55144" lon="3.29408">
        <ele>644</ele>
        <time>2009-02-24T15:54:27.000Z</time>
      </trkpt>
      <trkpt lat="44.55145" lon="3.29408">
        <ele>644</ele>
        <time>2009-02-24T15:54:28.000Z</time>
      </trkpt>
      <trkpt lat="44.55153" lon="3.29409">
        <ele>645</ele>
        <time>2009-02-24T15:54:38.000Z</time>
      </trkpt>
      <trkpt lat="44.55163" lon="3.29413">
        <ele>648</ele>
        <time>2009-02-24T15:54:47.000Z</time>
      </trkpt>
      <trkpt lat="44.5517" lon="3.29415">
        <ele>650</ele>
        <time>2009-02-24T15:54:53.000Z</time>
      </trkpt>
      <trkpt lat="44.55194" lon="3.29421">
        <ele>657</ele>
        <time>2009-02-24T15:55:16.000Z</time>
      </trkpt>
      <trkpt lat="44.552" lon="3.29423">
        <ele>652</ele>
        <time>2009-02-24T15:55:23.000Z</time>
      </trkpt>
      <trkpt lat="44.55207" lon="3.29423">
        <ele>651</ele>
        <time>2009-02-24T15:55:32.000Z</time>
      </trkpt>
      <trkpt lat="44.55217" lon="3.29425">
        <ele>649</ele>
        <time>2009-02-24T15:55:44.000Z</time>
      </trkpt>
      <trkpt lat="44.55261" lon="3.29439">
        <ele>653</ele>
        <time>2009-02-24T15:56:29.000Z</time>
      </trkpt>
      <trkpt lat="44.55262" lon="3.29439">
        <ele>653</ele>
        <time>2009-02-24T15:56:30.000Z</time>
      </trkpt>
      <trkpt lat="44.5528" lon="3.29448">
        <ele>651</ele>
        <time>2009-02-24T15:56:54.000Z</time>
      </trkpt>
      <trkpt lat="44.55288" lon="3.29453">
        <ele>641</ele>
        <time>2009-02-24T15:57:17.000Z</time>
      </trkpt>
      <trkpt lat="44.55298" lon="3.29461">
        <ele>659</ele>
        <time>2009-02-24T15:57:56.000Z</time>
      </trkpt>
      <trkpt lat="44.55302" lon="3.29466">
        <ele>660</ele>
        <time>2009-02-24T15:58:19.000Z</time>
      </trkpt>
      <trkpt lat="44.55314" lon="3.29465">
        <ele>645</ele>
        <time>2009-02-24T15:58:31.000Z</time>
      </trkpt>
      <trkpt lat="44.55334" lon="3.29466">
        <ele>645</ele>
        <time>2009-02-24T15:58:46.000Z</time>
      </trkpt>
      <trkpt lat="44.55342" lon="3.29469">
        <ele>649</ele>
        <time>2009-02-24T15:58:55.000Z</time>
      </trkpt>
      <trkpt lat="44.55363" lon="3.2947">
        <ele>649</ele>
        <time>2009-02-24T15:59:16.000Z</time>
      </trkpt>
      <trkpt lat="44.55369" lon="3.29469">
        <ele>661</ele>
        <time>2009-02-24T15:59:47.000Z</time>
      </trkpt>
      <trkpt lat="44.5537" lon="3.2947">
        <ele>655</ele>
        <time>2009-02-24T16:00:10.000Z</time>
      </trkpt>
    </trkseg>
  </trk>
</gpx>